VECC/CCU METAR and TAF weather

Enter ICAO airport designator
Station Type Date Time Source
VECC METAR 2022/01/26 15:00 UTC NOAA

VECC 261500Z 35007KT 2400 HZ FEW100 21/18 Q1012 NOSIG


Station Type Date Time Source
VECC Decoded METAR 2022/01/26 15:00 UTC NOAA

Calcutta / Dum Dum, India (VECC) 22-39N 088-27E 6M
Jan 26, 2022 - 10:00 AM EST / 2022.01.26 1500 UTC
Wind: from the N (350 degrees) at 8 MPH (7 KT):0
Visibility: 1 mile(s):0
Sky conditions: mostly clear
Weather: haze
Temperature: 69 F (21 C)
Dew Point: 64 F (18 C)
Relative Humidity: 82%
Pressure (altimeter): 29.88 in. Hg (1012 hPa)
ob: VECC 261500Z 35007KT 2400 HZ FEW100 21/18 Q1012 NOSIG
cycle: 15

Station Type Date Time Source
VECC TAF 2022/01/26 12:41 UTC NOAA

TAF VECC 261100Z 2612/2718 35006KT 2000 HZ FEW020 SCT100
BECMG 2701/2703 0900 MIFG
BECMG 2704/2706 1600 BR FEW100
BECMG 2707/2709 3000 HZ NSC
BECMG 2716/2718 2400 BR

Example: see airport list